Time;durP1;ratioP1;P1;durP2;ratioP2;P2;SDS_P1;SDS_P2;PMS_P1;PMS_P2;Temp;Humidity;BMP_temperature;BMP_pressure;BME280_temperature;BME280_humidity;BME280_pressure;Samples;Min_cycle;Max_cycle;Signal;HPM_P1;HPM_P2
2023/04/18 06:08:17;;;;;;;;;23.50;23.00;;;;;18.08;45.09;101867.50;4998520;27;45863;-73
2023/04/18 06:10:42;;;;;;;;;21.25;20.00;;;;;18.72;45.98;101862.25;5027641;27;45946;-73
2023/04/18 06:13:07;;;;;;;;;23.25;20.00;;;;;19.55;46.67;101847.31;4981224;27;45482;-75
2023/04/18 06:15:34;;;;;;;;;21.50;20.00;;;;;20.40;46.11;101848.06;4997826;27;45520;-76
2023/04/18 06:17:59;;;;;;;;;23.00;21.25;;;;;21.23;46.13;101852.34;4977182;28;46335;-73
2023/04/18 06:20:24;;;;;;;;;21.00;21.00;;;;;21.85;45.37;101839.16;4998409;27;45737;-73
2023/04/18 06:22:50;;;;;;;;;20.50;20.50;;;;;22.56;45.01;101857.53;5043119;27;45457;-73
2023/04/18 06:25:15;;;;;;;;;25.00;22.50;;;;;23.09;44.59;101845.59;5021502;27;45664;-73
2023/04/18 06:27:40;;;;;;;;;22.50;17.00;;;;;23.54;43.70;101849.69;4972239;28;46319;-73
2023/04/18 06:30:07;;;;;;;;;21.75;21.75;;;;;23.92;43.62;101851.69;4982700;27;45593;-73
2023/04/18 06:32:32;;;;;;;;;18.25;16.25;;;;;24.26;43.11;101853.94;4979880;28;45316;-73
2023/04/18 06:34:58;;;;;;;;;22.25;19.50;;;;;24.50;42.82;101851.72;4982907;28;45533;-74
2023/04/18 06:37:24;;;;;;;;;24.00;23.25;;;;;24.77;42.16;101860.91;4981500;28;47584;-79
2023/04/18 06:39:49;;;;;;;;;20.50;19.25;;;;;24.97;41.91;101854.38;5017356;27;45317;-77
2023/04/18 06:42:15;;;;;;;;;26.50;20.50;;;;;25.19;41.49;101854.13;4974690;27;45620;-77
2023/04/18 06:44:41;;;;;;;;;20.25;19.50;;;;;25.31;41.50;101847.47;5031296;27;45597;-77
2023/04/18 06:47:07;;;;;;;;;21.75;20.00;;;;;25.51;41.03;101847.31;5008202;27;46385;-81
2023/04/18 06:49:33;;;;;;;;;19.75;19.75;;;;;25.65;41.09;101854.97;5000075;27;45585;-73
2023/04/18 06:51:58;;;;;;;;;19.75;18.50;;;;;25.77;40.64;101849.28;4973856;28;45485;-76
2023/04/18 06:54:23;;;;;;;;;22.50;20.25;;;;;25.86;40.23;101852.91;4977433;28;45737;-72
2023/04/18 06:56:49;;;;;;;;;20.25;20.25;;;;;25.96;40.05;101858.25;4984643;27;46088;-72
2023/04/18 06:59:14;;;;;;;;;22.25;19.25;;;;;26.03;40.18;101857.47;4985216;27;45441;-72
2023/04/18 07:01:40;;;;;;;;;19.25;17.50;;;;;26.17;39.91;101861.47;5047044;27;45797;-73
2023/04/18 07:04:06;;;;;;;;;18.67;17.33;;;;;26.28;39.71;101854.09;4983533;28;45476;-73
2023/04/18 07:06:32;;;;;;;;;23.33;18.33;;;;;26.38;39.54;101851.25;4982952;28;45470;-73
2023/04/18 07:09:00;;;;;;;;;20.33;19.00;;;;;26.44;39.61;101854.19;4979637;27;45592;-72
2023/04/18 07:11:25;;;;;;;;;20.33;18.33;;;;;26.55;38.89;101855.78;4985765;27;45891;-73
2023/04/18 07:13:51;;;;;;;;;20.00;19.33;;;;;26.61;39.01;101853.44;4984119;27;45435;-74
2023/04/18 07:16:16;;;;;;;;;22.00;18.67;;;;;26.74;39.07;101866.59;4984073;28;55827;-74
2023/04/18 07:18:41;;;;;;;;;18.33;17.00;;;;;26.79;38.69;101861.50;4971524;27;45395;-76
2023/04/18 07:21:06;;;;;;;;;19.33;18.33;;;;;26.89;38.70;101867.66;4969087;28;45437;-76
2023/04/18 07:23:32;;;;;;;;;19.67;19.67;;;;;26.95;38.86;101860.75;4971795;28;45391;-75
2023/04/18 07:26:00;;;;;;;;;19.33;18.33;;;;;26.94;38.27;101864.50;4970800;28;60906;-79
2023/04/18 07:28:25;;;;;;;;;21.67;17.33;;;;;26.98;37.90;101865.00;4971780;28;45423;-77
2023/04/18 07:30:50;;;;;;;;;14.00;14.00;;;;;26.96;37.88;101865.16;4995586;28;45569;-77
2023/04/18 07:33:16;;;;;;;;;20.33;19.00;;;;;26.99;38.18;101867.56;4970185;28;54292;-77
2023/04/18 07:35:44;;;;;;;;;17.33;17.33;;;;;27.00;37.82;101874.72;4970374;28;46143;-77
2023/04/18 07:38:10;;;;;;;;;21.67;17.33;;;;;27.01;37.49;101870.97;4969997;28;45595;-77
2023/04/18 07:40:36;;;;;;;;;19.33;17.00;;;;;27.03;37.34;101859.91;4970862;28;45372;-77
2023/04/18 07:43:01;;;;;;;;;21.67;17.33;;;;;27.06;37.69;101857.72;4970884;28;45446;-77
2023/04/18 07:45:26;;;;;;;;;22.67;19.33;;;;;27.08;37.03;101850.25;4970554;28;45568;-77
2023/04/18 07:47:52;;;;;;;;;21.00;18.33;;;;;27.08;37.38;101852.09;4970063;28;45474;-76
2023/04/18 07:50:17;;;;;;;;;17.67;16.33;;;;;27.14;37.19;101856.88;4964810;28;45484;-77
2023/04/18 07:52:46;;;;;;;;;19.33;19.33;;;;;27.17;37.08;101847.50;4969502;28;45431;-77
2023/04/18 07:55:11;;;;;;;;;24.67;21.33;;;;;27.18;37.08;101850.06;4970014;28;46992;-75
2023/04/18 07:57:37;;;;;;;;;17.33;17.33;;;;;27.20;36.96;101850.78;4965815;28;45849;-76
2023/04/18 08:00:03;;;;;;;;;19.33;17.00;;;;;27.18;36.48;101844.63;4970493;28;51092;-76
2023/04/18 08:02:29;;;;;;;;;18.33;18.33;;;;;27.20;36.68;101839.88;4970404;28;45553;-79
2023/04/18 08:04:54;;;;;;;;;18.67;16.67;;;;;27.20;36.64;101836.28;4969573;28;45379;-78
2023/04/18 08:07:20;;;;;;;;;20.33;19.33;;;;;27.24;36.66;101834.94;4971793;28;46708;-76
2023/04/18 08:09:45;;;;;;;;;19.67;18.00;;;;;27.26;36.65;101834.78;4963687;28;45828;-76
2023/04/18 08:12:10;;;;;;;;;19.67;18.33;;;;;27.26;36.09;101840.22;4965545;28;45933;-76
2023/04/18 08:14:36;;;;;;;;;16.33;15.67;;;;;27.23;36.46;101841.41;4969449;28;51830;-76
2023/04/18 08:17:01;;;;;;;;;18.67;18.00;;;;;27.26;36.51;101838.34;4971292;28;45489;-76
2023/04/18 08:19:26;;;;;;;;;20.33;19.00;;;;;27.28;36.44;101840.91;4968257;28;45493;-76
2023/04/18 08:21:51;;;;;;;;;18.00;18.00;;;;;27.29;35.80;101834.41;4970785;28;45511;-76
2023/04/18 08:24:17;;;;;;;;;17.67;16.33;;;;;27.27;35.70;101833.75;4968671;28;65072;-76
2023/04/18 08:26:42;;;;;;;;;17.67;16.33;;;;;27.32;35.73;101836.81;4969961;28;45368;-75
2023/04/18 08:29:07;;;;;;;;;18.67;17.67;;;;;27.32;35.47;101832.25;4970132;28;45473;-75
2023/04/18 08:31:33;;;;;;;;;20.00;19.67;;;;;27.31;35.37;101827.81;4963353;28;45350;-76
2023/04/18 08:33:58;;;;;;;;;18.67;17.67;;;;;27.36;35.50;101832.75;4968486;28;53718;-76
2023/04/18 08:36:23;;;;;;;;;21.00;19.00;;;;;27.32;35.46;101826.78;4971328;28;45572;-78
2023/04/18 08:38:49;;;;;;;;;18.33;17.00;;;;;27.39;35.65;101835.16;4970101;28;45686;-76
2023/04/18 08:41:19;;;;;;;;;23.00;20.67;;;;;27.39;35.68;101831.56;4970660;28;45399;-76
2023/04/18 08:43:47;;;;;;;;;19.67;17.33;;;;;27.40;35.24;101833.25;4966613;28;46369;-76
2023/04/18 08:46:13;;;;;;;;;20.00;18.67;;;;;27.40;35.02;101820.50;4970953;28;45485;-76
2023/04/18 08:48:38;;;;;;;;;21.00;19.67;;;;;27.39;35.07;101823.38;4967067;28;45561;-76
2023/04/18 08:51:04;;;;;;;;;20.00;17.67;;;;;27.40;35.60;101817.75;4970100;28;45572;-78
2023/04/18 08:53:32;;;;;;;;;18.00;16.67;;;;;27.43;35.36;101820.13;4968116;28;46017;-75
2023/04/18 08:55:59;;;;;;;;;18.67;18.00;;;;;27.36;35.47;101808.22;4971020;28;45414;-75
2023/04/18 08:58:26;;;;;;;;;20.33;19.00;;;;;27.41;35.38;101808.56;4969715;28;45503;-74
2023/04/18 09:00:52;;;;;;;;;19.67;19.33;;;;;27.44;34.79;101818.28;4969972;28;45417;-73
2023/04/18 09:03:37;;;;;;;;;19.67;17.67;;;;;27.46;35.32;101808.06;4969808;28;47523;-75
2023/04/18 09:06:15;;;;;;;;;17.67;17.00;;;;;27.48;34.66;101809.59;4960629;28;45673;-73
2023/04/18 09:08:42;;;;;;;;;19.00;18.67;;;;;27.48;34.90;101816.91;4969019;28;45683;-75
2023/04/18 09:11:27;;;;;;;;;20.67;20.33;;;;;27.43;35.06;101801.03;4969874;28;45842;-78
2023/04/18 09:13:55;;;;;;;;;20.33;20.33;;;;;27.40;34.88;101806.00;4966394;28;47065;-72
2023/04/18 09:16:21;;;;;;;;;21.33;16.67;;;;;27.42;34.50;101807.53;4969929;28;45531;-72
2023/04/18 09:19:11;;;;;;;;;17.67;17.67;;;;;27.42;34.45;101804.81;4968613;28;45400;-72
2023/04/18 09:21:43;;;;;;;;;20.67;17.67;;;;;27.45;35.12;101795.44;4960506;28;46117;-72
2023/04/18 09:24:19;;;;;;;;;21.00;19.33;;;;;27.50;35.11;101795.78;4968532;28;45562;-75
2023/04/18 09:26:45;;;;;;;;;22.00;20.00;;;;;27.54;34.43;101791.69;4968860;28;45611;-75
2023/04/18 09:29:10;;;;;;;;;14.33;14.33;;;;;27.59;34.80;101796.66;4970275;28;45335;-75
2023/04/18 09:31:53;;;;;;;;;23.00;21.67;;;;;27.60;34.75;101790.19;4967499;28;45571;-75
2023/04/18 09:34:23;;;;;;;;;16.33;15.33;;;;;27.58;34.60;101779.41;4969456;28;46262;-75
2023/04/18 09:37:07;;;;;;;;;17.33;16.33;;;;;27.59;34.18;101788.47;4970214;28;45494;-75
2023/04/18 09:39:33;;;;;;;;;21.33;20.33;;;;;27.57;34.46;101771.41;4970016;28;45548;-75
2023/04/18 09:41:59;;;;;;;;;20.33;16.33;;;;;27.60;33.75;101780.16;4958312;28;45510;-75
2023/04/18 09:44:25;;;;;;;;;17.33;16.67;;;;;27.58;34.57;101768.50;4969973;28;45405;-75
2023/04/18 09:46:50;;;;;;;;;18.00;18.00;;;;;27.58;34.13;101775.81;4965755;28;45585;-75
2023/04/18 09:49:16;;;;;;;;;19.67;17.33;;;;;27.57;33.75;101780.44;4960347;28;45435;-75
2023/04/18 09:51:45;;;;;;;;;19.67;18.67;;;;;27.56;34.14;101781.47;4969827;28;45597;-75
2023/04/18 09:54:14;;;;;;;;;19.00;17.33;;;;;27.57;34.46;101776.84;4969692;28;46286;-75
2023/04/18 09:56:43;;;;;;;;;19.67;19.00;;;;;27.56;34.44;101761.53;4969987;28;45621;-75
2023/04/18 09:59:10;;;;;;;;;17.00;16.67;;;;;27.58;33.58;101768.50;4970323;28;45593;-76
2023/04/18 10:01:35;;;;;;;;;20.00;20.00;;;;;27.59;33.64;101763.91;4965409;28;45529;-74
2023/04/18 10:04:03;;;;;;;;;20.33;16.33;;;;;27.58;33.88;101764.91;4965476;28;45504;-74
2023/04/18 10:06:32;;;;;;;;;18.00;17.00;;;;;27.60;33.41;101760.19;4967971;28;45368;-75
2023/04/18 10:08:57;;;;;;;;;19.67;18.33;;;;;27.58;34.10;101752.16;4977821;28;45536;-75
2023/04/18 10:11:23;;;;;;;;;20.67;17.67;;;;;27.60;33.65;101752.00;4956651;28;45428;-75
2023/04/18 10:13:52;;;;;;;;;17.67;17.67;;;;;27.59;33.89;101753.00;4968476;28;46102;-75
2023/04/18 10:16:19;;;;;;;;;17.00;17.00;;;;;27.58;33.93;101740.38;4969744;28;45496;-74
2023/04/18 10:18:45;;;;;;;;;14.67;14.33;;;;;27.59;33.62;101744.84;4968534;28;45502;-74
2023/04/18 10:21:10;;;;;;;;;21.00;17.33;;;;;27.65;33.66;101756.94;4969720;28;45527;-74
2023/04/18 10:23:39;;;;;;;;;19.67;18.67;;;;;27.62;33.08;101741.78;4968510;28;46290;-74
2023/04/18 10:26:06;;;;;;;;;22.33;21.00;;;;;27.64;33.46;101736.16;4967715;28;45579;-74
2023/04/18 10:28:52;;;;;;;;;16.67;16.67;;;;;27.53;33.72;101729.13;4964393;28;45558;-77
2023/04/18 10:31:17;;;;;;;;;20.33;18.67;;;;;27.60;33.35;101741.09;4969134;28;45543;-73
2023/04/18 10:33:47;;;;;;;;;17.33;17.33;;;;;27.59;33.85;101732.03;4960231;28;45972;-74
2023/04/18 10:36:15;;;;;;;;;17.00;17.00;;;;;27.55;33.81;101725.22;4967333;28;45536;-75
2023/04/18 10:38:47;;;;;;;;;17.67;17.33;;;;;27.57;33.23;101736.81;4960821;28;45447;-74
2023/04/18 10:41:21;;;;;;;;;19.33;17.00;;;;;27.55;33.57;101727.13;4952452;28;45575;-74
2023/04/18 10:44:07;;;;;;;;;18.33;18.00;;;;;27.53;33.78;101723.69;4966581;28;48031;-74
2023/04/18 10:46:37;;;;;;;;;18.67;17.33;;;;;27.49;33.54;101709.56;4957448;28;45513;-74
2023/04/18 10:49:27;;;;;;;;;18.00;16.33;;;;;27.51;33.66;101712.13;4966513;28;45757;-74
2023/04/18 10:51:59;;;;;;;;;20.00;19.00;;;;;27.44;33.47;101699.19;4966860;28;46899;-73
2023/04/18 10:54:26;;;;;;;;;16.00;16.00;;;;;27.51;33.65;101695.75;4969389;28;45466;-74
2023/04/18 10:56:54;;;;;;;;;19.67;18.33;;;;;27.48;32.99;101703.28;4967134;28;45460;-74
2023/04/18 10:59:22;;;;;;;;;20.00;19.00;;;;;27.45;33.55;101702.75;4968510;28;45446;-74
2023/04/18 11:01:53;;;;;;;;;19.33;18.67;;;;;27.47;33.61;101701.53;4972238;28;45540;-74
2023/04/18 11:04:18;;;;;;;;;17.67;16.33;;;;;27.46;33.39;101702.56;4969092;28;45494;-75
2023/04/18 11:06:56;;;;;;;;;18.67;18.33;;;;;27.52;33.16;101701.03;4969600;28;45406;-76
2023/04/18 11:09:22;;;;;;;;;18.00;16.67;;;;;27.54;33.06;101706.34;4966267;28;45441;-74
2023/04/18 11:12:02;;;;;;;;;18.33;18.00;;;;;27.57;33.36;101690.47;4967519;28;45345;-75
2023/04/18 11:14:45;;;;;;;;;19.67;18.67;;;;;27.59;33.34;101682.13;4971235;28;46176;-73
2023/04/18 11:17:17;;;;;;;;;17.33;17.33;;;;;27.64;33.34;101695.25;4969573;28;45468;-73
2023/04/18 11:19:42;;;;;;;;;19.33;19.00;;;;;27.64;33.20;101687.94;4965941;28;45451;-72
2023/04/18 11:22:08;;;;;;;;;19.67;19.67;;;;;27.65;32.70;101689.63;4969872;28;45407;-72
2023/04/18 11:24:33;;;;;;;;;21.00;19.33;;;;;27.63;32.80;101688.97;4971868;28;46280;-73
2023/04/18 11:26:59;;;;;;;;;21.67;17.67;;;;;27.62;33.13;101684.50;4970202;28;45431;-72
2023/04/18 11:29:24;;;;;;;;;19.00;19.00;;;;;27.61;32.99;101685.53;4972036;28;45356;-73
2023/04/18 11:31:52;;;;;;;;;17.00;14.67;;;;;27.57;33.17;101681.44;4968961;28;45481;-73
2023/04/18 11:34:17;;;;;;;;;19.33;18.00;;;;;27.55;32.95;101678.03;4971021;28;45685;-73
2023/04/18 11:36:42;;;;;;;;;19.33;18.33;;;;;27.56;32.46;101685.19;4970730;28;45399;-73
2023/04/18 11:39:09;;;;;;;;;16.33;16.33;;;;;27.51;32.56;101679.41;4964315;28;52534;-73
2023/04/18 11:41:34;;;;;;;;;16.00;15.00;;;;;27.47;32.40;101677.00;4960653;28;45699;-74
2023/04/18 11:44:05;;;;;;;;;17.33;17.33;;;;;27.46;32.42;101666.31;4966678;28;45689;-74
2023/04/18 11:46:37;;;;;;;;;21.33;20.67;;;;;27.41;33.01;101661.34;4965736;28;45548;-74
2023/04/18 11:49:03;;;;;;;;;19.67;19.00;;;;;27.47;32.64;101668.81;4970566;28;45360;-74
2023/04/18 11:51:34;;;;;;;;;10.00;10.00;;;;;27.47;32.59;101678.91;4959505;28;45550;-73
2023/04/18 11:54:00;;;;;;;;;20.00;20.00;;;;;27.51;32.40;101673.94;4972564;28;45905;-73
2023/04/18 11:56:26;;;;;;;;;19.33;17.67;;;;;27.48;32.64;101656.94;4968268;28;45370;-74
2023/04/18 11:58:52;;;;;;;;;18.00;17.00;;;;;27.51;32.50;101654.88;4958926;28;45475;-74
2023/04/18 12:01:18;;;;;;;;;17.00;16.00;;;;;27.54;32.91;101663.53;4984451;28;45450;-72
2023/04/18 12:04:02;;;;;;;;;19.00;19.00;;;;;27.54;32.65;101649.06;4959513;28;46290;-72
2023/04/18 12:06:44;;;;;;;;;20.33;19.00;;;;;27.56;32.26;101660.66;4969748;28;45442;-73
2023/04/18 12:09:12;;;;;;;;;17.67;16.33;;;;;27.62;32.31;101657.25;5003157;27;45357;-73
2023/04/18 12:11:40;;;;;;;;;20.67;20.67;;;;;27.65;32.25;101647.88;4962615;28;45526;-73
2023/04/18 12:14:06;;;;;;;;;19.33;16.33;;;;;27.78;32.92;101660.97;4970597;28;47009;-73
2023/04/18 12:16:32;;;;;;;;;18.33;18.33;;;;;27.85;32.76;101651.03;4968434;28;45464;-72
2023/04/18 12:18:59;;;;;;;;;16.67;16.67;;;;;27.92;32.68;101654.78;4963569;28;46058;-73
2023/04/18 12:21:28;;;;;;;;;15.00;15.00;;;;;27.97;32.97;101651.50;4971451;28;45473;-73
2023/04/18 12:23:54;;;;;;;;;14.00;14.00;;;;;28.02;32.78;101654.56;4964603;28;45698;-73
2023/04/18 12:26:21;;;;;;;;;17.33;17.33;;;;;27.96;32.37;101647.09;4960822;28;45533;-73
2023/04/18 12:28:49;;;;;;;;;14.00;14.00;;;;;28.09;32.89;101641.91;4968373;28;45448;-71
2023/04/18 12:31:15;;;;;;;;;15.33;15.33;;;;;28.11;32.66;101631.66;4971663;28;45430;-71
2023/04/18 12:33:40;;;;;;;;;16.67;15.67;;;;;28.11;32.66;101612.56;4968739;28;45938;-72
2023/04/18 12:36:07;;;;;;;;;14.00;14.00;;;;;28.23;32.28;101634.84;4970619;28;45429;-73
2023/04/18 12:38:33;;;;;;;;;14.67;14.33;;;;;28.26;32.55;101636.41;4969641;28;45505;-72
2023/04/18 12:40:59;;;;;;;;;14.67;14.67;;;;;28.31;32.62;101633.97;4971407;28;45554;-71
2023/04/18 12:43:24;;;;;;;;;16.67;16.33;;;;;28.35;32.83;101629.00;4969288;28;46147;-73
2023/04/18 12:45:50;;;;;;;;;13.33;13.33;;;;;28.38;32.10;101636.84;4970866;28;45471;-72
2023/04/18 12:48:15;;;;;;;;;18.67;15.33;;;;;28.38;32.80;101613.13;4969478;28;46394;-73
2023/04/18 12:50:40;;;;;;;;;14.33;14.33;;;;;28.37;32.38;101616.03;4969467;28;45523;-73
2023/04/18 12:53:06;;;;;;;;;10.00;10.00;;;;;28.48;32.45;101633.88;4969335;28;46216;-72
2023/04/18 12:55:31;;;;;;;;;15.00;13.33;;;;;28.49;32.17;101620.03;4963998;28;45430;-71
2023/04/18 12:57:57;;;;;;;;;15.67;15.00;;;;;28.49;32.33;101621.94;4970432;28;45527;-73
2023/04/18 13:00:25;;;;;;;;;14.67;12.67;;;;;28.53;32.76;101620.53;4969712;28;45781;-73
2023/04/18 13:02:53;;;;;;;;;15.33;15.33;;;;;28.57;32.03;101612.81;4970340;28;45447;-74
2023/04/18 13:05:22;;;;;;;;;13.67;13.67;;;;;28.63;32.21;101618.41;4969551;28;45576;-73
2023/04/18 13:07:48;;;;;;;;;16.33;14.00;;;;;28.66;32.78;101607.09;4968592;28;45603;-74
2023/04/18 13:10:16;;;;;;;;;16.67;16.00;;;;;28.74;32.22;101611.69;4968697;28;45582;-73
2023/04/18 13:12:42;;;;;;;;;15.00;13.33;;;;;28.73;32.33;101601.75;4968730;28;47359;-74
2023/04/18 13:15:08;;;;;;;;;14.00;14.00;;;;;28.81;32.24;101614.50;4970294;28;46399;-73
2023/04/18 13:17:35;;;;;;;;;16.33;14.67;;;;;28.83;32.45;101607.00;4968516;28;45564;-73
2023/04/18 13:20:05;;;;;;;;;12.33;11.67;;;;;28.82;32.65;101601.69;4969016;28;45542;-73
2023/04/18 13:22:31;;;;;;;;;17.00;14.00;;;;;28.87;32.23;101599.25;4970106;28;46142;-73
2023/04/18 13:24:57;;;;;;;;;13.67;13.67;;;;;28.85;32.27;101591.25;4968601;28;45415;-72
2023/04/18 13:27:22;;;;;;;;;15.33;15.33;;;;;28.88;32.06;101601.84;4968093;28;45658;-73
2023/04/18 13:29:47;;;;;;;;;11.00;11.00;;;;;28.93;32.42;101601.28;4969099;28;45804;-73
2023/04/18 13:32:12;;;;;;;;;13.67;13.67;;;;;28.97;32.66;101593.59;4957043;28;46935;-73
2023/04/18 13:34:43;;;;;;;;;11.33;11.33;;;;;29.01;32.14;101590.28;4969193;28;45752;-72
2023/04/18 13:37:09;;;;;;;;;14.00;13.67;;;;;29.02;32.30;101582.94;4966652;28;45665;-70
2023/04/18 13:39:35;;;;;;;;;14.33;13.67;;;;;29.01;32.50;101590.28;4971337;28;45684;-72
2023/04/18 13:42:03;;;;;;;;;17.00;15.00;;;;;29.03;32.68;101587.38;4969563;28;46243;-72
2023/04/18 13:44:31;;;;;;;;;15.67;15.67;;;;;29.03;32.61;101596.44;4966712;28;45428;-72
2023/04/18 13:46:56;;;;;;;;;14.33;13.67;;;;;29.00;32.24;101585.88;4975936;28;45503;-73
2023/04/18 13:49:22;;;;;;;;;13.33;13.33;;;;;28.99;32.22;101586.91;5010377;27;45596;-73
2023/04/18 13:51:49;;;;;;;;;21.00;15.33;;;;;28.90;32.50;101585.28;4968243;28;46126;-73
2023/04/18 13:54:15;;;;;;;;;17.33;17.00;;;;;28.97;31.69;101588.13;4969230;28;45402;-71
2023/04/18 13:56:41;;;;;;;;;14.67;12.33;;;;;28.97;31.93;101583.50;4970005;28;45656;-70
2023/04/18 13:59:07;;;;;;;;;14.33;12.33;;;;;28.98;32.30;101581.63;4973511;28;45545;-71
2023/04/18 14:01:32;;;;;;;;;13.00;13.00;;;;;28.97;32.46;101582.66;4964616;28;45353;-70
2023/04/18 14:03:58;;;;;;;;;12.33;11.00;;;;;28.95;32.38;101577.38;4960835;28;45741;-69
2023/04/18 14:06:26;;;;;;;;;12.67;12.67;;;;;28.98;32.51;101576.16;4968396;28;45705;-71
2023/04/18 14:08:52;;;;;;;;;11.33;11.33;;;;;29.01;32.35;101573.88;4978555;28;45505;-71
2023/04/18 14:11:18;;;;;;;;;13.67;11.67;;;;;29.00;32.17;101577.66;4960885;28;46231;-71
2023/04/18 14:13:44;;;;;;;;;12.33;12.33;;;;;28.96;32.34;101562.66;4965244;28;45492;-72
2023/04/18 14:16:09;;;;;;;;;14.50;13.00;;;;;29.02;31.97;101580.22;4969390;28;45372;-73
2023/04/18 14:18:34;;;;;;;;;17.00;15.33;;;;;29.03;32.15;101576.44;5022970;28;45438;-72
2023/04/18 14:21:00;;;;;;;;;11.00;11.00;;;;;29.00;32.03;101574.06;4976656;28;51119;-72
2023/04/18 14:23:25;;;;;;;;;16.33;13.33;;;;;29.05;31.93;101571.63;4969858;28;45380;-73
2023/04/18 14:25:50;;;;;;;;;13.67;13.00;;;;;29.05;32.26;101563.44;4964956;28;45422;-72
2023/04/18 14:28:17;;;;;;;;;13.00;12.00;;;;;29.03;31.88;101570.97;4970266;28;45265;-72
2023/04/18 14:30:43;;;;;;;;;14.00;12.00;;;;;29.05;31.82;101577.09;4971783;28;46063;-73
2023/04/18 14:33:09;;;;;;;;;13.67;11.00;;;;;29.04;32.33;101572.66;4970739;28;45482;-71
2023/04/18 14:35:34;;;;;;;;;12.00;12.00;;;;;29.01;32.46;101568.41;4981577;28;45376;-70
2023/04/18 14:38:00;;;;;;;;;10.67;10.67;;;;;29.02;32.20;101572.84;4973545;27;45506;-76
2023/04/18 14:40:26;;;;;;;;;12.67;11.67;;;;;28.97;32.17;101566.25;4971335;28;45400;-73
2023/04/18 14:42:51;;;;;;;;;13.67;12.67;;;;;28.90;31.49;101563.41;4971772;28;45831;-71
2023/04/18 14:45:16;;;;;;;;;15.00;15.00;;;;;28.85;32.19;101565.81;4972164;28;45725;-72
2023/04/18 14:47:45;;;;;;;;;13.67;13.67;;;;;28.83;31.97;101562.41;4972341;28;45466;-72
2023/04/18 14:50:11;;;;;;;;;16.33;13.33;;;;;28.78;31.51;101555.63;4972416;28;45664;-72
2023/04/18 14:52:37;;;;;;;;;13.67;13.67;;;;;28.82;31.50;101558.00;4970826;28;45466;-71
2023/04/18 14:55:04;;;;;;;;;14.00;14.00;;;;;28.87;31.63;101558.28;4971087;28;45678;-71
2023/04/18 14:57:29;;;;;;;;;10.67;9.00;;;;;28.89;31.59;101559.81;4972530;28;45506;-73
2023/04/18 14:59:55;;;;;;;;;12.67;12.67;;;;;28.93;31.58;101560.28;4967819;28;45670;-73
2023/04/18 15:02:20;;;;;;;;;13.00;12.00;;;;;28.92;31.82;101564.06;4972268;28;45422;-73
2023/04/18 15:04:47;;;;;;;;;15.33;14.67;;;;;28.91;31.98;101570.56;4972023;28;45657;-73
2023/04/18 15:07:13;;;;;;;;;11.67;11.67;;;;;28.93;31.67;101563.88;4972360;28;46132;-72
2023/04/18 15:09:39;;;;;;;;;14.00;11.33;;;;;28.92;31.21;101558.59;4977281;28;46030;-72
2023/04/18 15:12:05;;;;;;;;;13.67;13.67;;;;;28.93;31.27;101552.09;4972411;28;45615;-72
2023/04/18 15:14:31;;;;;;;;;10.67;10.00;;;;;28.97;31.50;101553.44;4971714;28;45440;-72
2023/04/18 15:16:56;;;;;;;;;14.00;13.00;;;;;29.00;31.86;101555.81;4971057;28;45405;-72
2023/04/18 15:19:22;;;;;;;;;12.67;12.67;;;;;29.00;31.74;101547.59;4971277;28;46352;-74
2023/04/18 15:21:47;;;;;;;;;14.00;11.00;;;;;29.03;32.06;101555.44;4971876;28;45416;-69
2023/04/18 15:24:13;;;;;;;;;12.00;10.00;;;;;29.05;32.13;101561.56;4967313;28;53694;-70
2023/04/18 15:26:39;;;;;;;;;10.00;10.00;;;;;29.03;32.20;101549.97;4964019;28;45751;-71
2023/04/18 15:29:05;;;;;;;;;10.00;10.00;;;;;29.08;31.56;101552.13;4972122;28;45958;-72
2023/04/18 15:31:31;;;;;;;;;10.33;8.67;;;;;29.12;32.01;101553.47;4970818;28;45341;-72
2023/04/18 15:33:56;;;;;;;;;10.33;9.67;;;;;29.12;32.20;101549.88;4970588;28;45749;-72
2023/04/18 15:36:22;;;;;;;;;12.67;12.00;;;;;29.13;32.00;101548.81;4972136;28;45490;-71
2023/04/18 15:38:47;;;;;;;;;11.00;9.33;;;;;29.11;31.81;101546.31;4966539;28;46224;-73
2023/04/18 15:41:12;;;;;;;;;12.00;12.00;;;;;29.14;31.72;101545.91;4963356;28;50650;-73
2023/04/18 15:43:41;;;;;;;;;9.00;9.00;;;;;29.17;31.63;101545.53;4971283;28;45501;-70
2023/04/18 15:46:08;;;;;;;;;12.00;11.67;;;;;29.19;32.18;101548.94;4971293;28;45467;-73
2023/04/18 15:48:35;;;;;;;;;9.00;9.00;;;;;29.18;31.81;101540.94;4970686;28;45406;-71
2023/04/18 15:51:00;;;;;;;;;9.33;9.33;;;;;29.21;31.56;101546.00;4965418;28;45890;-69
2023/04/18 15:53:25;;;;;;;;;9.67;9.67;;;;;29.18;31.90;101536.31;4972536;28;45792;-72
2023/04/18 15:55:52;;;;;;;;;11.67;11.33;;;;;29.19;31.90;101540.72;5006949;28;50358;-72
2023/04/18 15:58:20;;;;;;;;;12.33;11.33;;;;;29.15;31.72;101536.69;4969641;28;46227;-73
2023/04/18 16:00:46;;;;;;;;;8.33;8.33;;;;;29.08;31.05;101541.19;4971509;28;45506;-73
2023/04/18 16:03:11;;;;;;;;;11.00;10.33;;;;;28.97;31.49;101536.22;4970220;28;45430;-73
2023/04/18 16:05:36;;;;;;;;;8.67;7.33;;;;;28.87;31.07;101534.56;4971547;28;45489;-73
2023/04/18 16:08:02;;;;;;;;;8.67;8.67;;;;;28.81;31.32;101548.94;4970756;28;45390;-73
2023/04/18 16:10:27;;;;;;;;;13.00;10.33;;;;;28.71;31.19;101530.09;4967731;28;45273;-73
2023/04/18 16:12:53;;;;;;;;;8.67;8.67;;;;;28.64;31.05;101538.16;4967836;28;45457;-73
2023/04/18 16:15:18;;;;;;;;;17.67;15.33;;;;;28.56;30.94;101540.97;4968524;28;45535;-72
2023/04/18 16:17:44;;;;;;;;;10.00;10.00;;;;;28.45;31.05;101533.22;4970431;28;46398;-74
2023/04/18 16:20:09;;;;;;;;;9.67;9.67;;;;;28.44;31.34;101542.44;4969708;28;45474;-73
2023/04/18 16:22:36;;;;;;;;;12.00;12.00;;;;;28.40;30.75;101542.81;4970886;28;45406;-73
2023/04/18 16:25:02;;;;;;;;;12.33;10.33;;;;;28.38;31.26;101544.88;4958783;28;46132;-73
2023/04/18 16:27:27;;;;;;;;;10.33;10.33;;;;;28.38;31.10;101542.16;4967762;28;46289;-73
2023/04/18 16:29:53;;;;;;;;;8.00;8.00;;;;;28.27;30.94;101528.91;4970525;28;45707;-73
2023/04/18 16:32:18;;;;;;;;;11.00;11.00;;;;;28.37;30.77;101545.06;4963388;28;47000;-73
2023/04/18 16:34:44;;;;;;;;;10.00;9.33;;;;;28.34;31.02;101542.69;4968694;28;45723;-73
2023/04/18 16:37:10;;;;;;;;;9.67;9.67;;;;;28.35;30.90;101539.78;4970461;28;45493;-71
2023/04/18 16:39:35;;;;;;;;;8.33;8.00;;;;;28.37;30.74;101545.88;4967863;28;45737;-72
2023/04/18 16:42:02;;;;;;;;;10.33;10.00;;;;;28.35;31.00;101541.66;4968768;28;45659;-72
2023/04/18 16:44:27;;;;;;;;;11.00;11.00;;;;;28.35;30.88;101538.91;4970329;28;45574;-73
2023/04/18 16:46:52;;;;;;;;;9.00;8.67;;;;;28.32;30.58;101540.13;4969093;28;46448;-73
2023/04/18 16:49:19;;;;;;;;;9.00;9.00;;;;;28.33;30.70;101536.38;4970969;28;45438;-73
2023/04/18 16:51:44;;;;;;;;;10.67;10.00;;;;;28.31;30.93;101537.59;4967727;28;45474;-72
2023/04/18 16:54:10;;;;;;;;;8.00;8.00;;;;;28.31;30.71;101540.34;4969839;28;45586;-72
2023/04/18 16:56:35;;;;;;;;;12.00;9.33;;;;;28.30;30.89;101539.47;4969091;28;45915;-72
2023/04/18 16:59:00;;;;;;;;;10.00;10.00;;;;;28.30;30.28;101539.47;4968278;28;53176;-76
2023/04/18 17:01:26;;;;;;;;;8.67;8.67;;;;;28.27;31.11;101534.38;4970848;28;45332;-76
2023/04/18 17:03:51;;;;;;;;;14.33;13.00;;;;;28.27;30.66;101528.91;4961984;28;45596;-74
2023/04/18 17:06:18;;;;;;;;;10.00;10.00;;;;;28.22;30.85;101529.44;4968381;28;45850;-75
2023/04/18 17:08:44;;;;;;;;;11.00;10.00;;;;;28.23;30.67;101533.00;4964301;28;45441;-75
2023/04/18 17:11:09;;;;;;;;;7.00;6.00;;;;;28.21;30.92;101532.34;4961795;28;45458;-75
2023/04/18 17:13:35;;;;;;;;;11.67;8.00;;;;;28.15;30.79;101525.72;4970518;28;47262;-74
2023/04/18 17:16:00;;;;;;;;;8.00;8.00;;;;;28.14;30.82;101534.94;4970531;28;45837;-79